Middletown, DE (19709)

9:45 PM EST on December 22, 2014 (GMT -0500)
Thomas Landing | Change Station
CLOSE
Current Station
Personal Weather Station
Location: Middletown, DE
Elevation: 20 ft
Nearby Weather Stations

Elev 20 ft 39.45 °N, 75.62 °W | Updated 5 minutes ago

Mostly Cloudy
Mostly Cloudy
39.7 °F
Feels Like 40 °F
N
1.7
Wind Variable Wind from NE

Today
High -- | Low -- °F
--% Chance of Precip.
Yesterday
High -- | Low -- °F
Precip. -- in
7:19 AM 4:42 PM
New Moon, 1% visible
Pressure 30.15 in
Visibility 5.0 miles
Clouds Mostly Cloudy 2000 ft
Overcast 3500 ft
Windchill 40 °F
Dew Point 39 °F
Humidity 96%
Rainfall 0.00 in
Snow Depth Not available.
UV 0 out of 12
Pollen .10 out of 12
Air Quality Not available.
Flu Activity Not available.
SPECI KILG 230218Z 06008KT 5SM -RA BR BKN020 OVC035 06/04 A3015 RMK AO2 P0000 T00560039

More Conditions Fewer Conditions

Pressure 30.15 in
Visibility 5.0 miles
Clouds Mostly Cloudy 2000 ft
Overcast 3500 ft
Windchill 40 °F
Dew Point 39 °F
Humidity 96%
Rainfall 0.00 in
Snow Depth Not available.
UV 0 out of 12
Pollen .10 out of 12
Air Quality Not available.
Flu Activity Not available.
SPECI KILG 230218Z 06008KT 5SM -RA BR BKN020 OVC035 06/04 A3015 RMK AO2 P0000 T00560039

More Conditions Fewer Conditions

10-Day Weather Forecast

Almanac

Astronomy

Dec. 22, 2014 Rise Set
Actual Time
Civil Twilight
Nautical Twilight
Astronomical Twilight
Moon
Length of Visible Light
Length of Day
Tomorrow will be .
, % of the Moon is Illuminated

Today's Extremes

State Highs State Lows

Community

WunderPhotos

Upload Photos

1,779,762 photos uploaded!

WunderBlogs® & News

Nearby

Air Quality

  Air Quality AQ Index Pollutant
Not available.

Snow Depth

Station Depth Elevation

Earthquake Activity

City Distance Mag. Time & Date
Minimum magnitude displayed is 2.5.

Coastal Water Temperatures

Place Temperature

Nearby Weather Stations